sensor_id;sensor_type;location;lat;lon;timestamp;temperature;humidity
64468;DHT22;50853;46.836;16.820;2022-09-24T11:12:06;21.50;53.40
64468;DHT22;50853;46.836;16.820;2022-09-24T11:20:34;21.80;53.00
64468;DHT22;50853;46.836;16.820;2022-09-24T11:38:14;22.10;52.70
64468;DHT22;50853;46.836;16.820;2022-09-24T11:40:58;22.30;54.00
64468;DHT22;50853;46.836;16.820;2022-09-24T11:44:30;22.20;51.30
64468;DHT22;50853;46.836;16.820;2022-09-24T11:46:46;22.40;51.90
64468;DHT22;50853;46.836;16.820;2022-09-24T11:52:32;22.20;49.10
64468;DHT22;50853;46.836;16.820;2022-09-24T11:55:22;22.40;51.30
64468;DHT22;50853;46.836;16.820;2022-09-24T12:01:11;22.30;50.20
64468;DHT22;50853;46.836;16.820;2022-09-24T12:04:05;22.40;50.60
64468;DHT22;50853;46.836;16.820;2022-09-24T12:06:50;22.50;52.90
64468;DHT22;50853;46.836;16.820;2022-09-24T12:09:36;22.10;50.00
64468;DHT22;50853;46.836;16.820;2022-09-24T12:12:09;22.20;51.60
64468;DHT22;50853;46.836;16.820;2022-09-24T12:15:00;22.20;50.60
64468;DHT22;50853;46.836;16.820;2022-09-24T12:17:48;22.20;51.80
64468;DHT22;50853;46.836;16.820;2022-09-24T12:20:44;22.20;52.60
64468;DHT22;50853;46.836;16.820;2022-09-24T12:23:13;22.30;52.20
64468;DHT22;50853;46.836;16.820;2022-09-24T12:25:43;22.30;53.30
64468;DHT22;50853;46.836;16.820;2022-09-24T12:28:20;22.20;49.50
64468;DHT22;50853;46.836;16.820;2022-09-24T12:31:18;22.40;52.00
64468;DHT22;50853;46.836;16.820;2022-09-24T12:34:21;22.40;52.30
64468;DHT22;50853;46.836;16.820;2022-09-24T12:37:12;22.40;51.00
64468;DHT22;50853;46.836;16.820;2022-09-24T12:42:23;22.30;52.30
64468;DHT22;50853;46.836;16.820;2022-09-24T12:44:57;22.20;50.90
64468;DHT22;50853;46.836;16.820;2022-09-24T12:47:25;22.30;52.00
64468;DHT22;50853;46.836;16.820;2022-09-24T12:49:58;22.40;49.50
64468;DHT22;50853;46.836;16.820;2022-09-24T12:52:34;22.60;51.70
64468;DHT22;50853;46.836;16.820;2022-09-24T12:55:03;22.60;50.10
64468;DHT22;50853;46.836;16.820;2022-09-24T12:57:35;22.60;50.60
64468;DHT22;50853;46.836;16.820;2022-09-24T13:00:31;22.50;48.20
64468;DHT22;50853;46.836;16.820;2022-09-24T13:02:50;22.30;49.70
64468;DHT22;50853;46.836;16.820;2022-09-24T13:08:22;22.30;49.50
64468;DHT22;50853;46.836;16.820;2022-09-24T13:10:57;22.30;49.50
64468;DHT22;50853;46.836;16.820;2022-09-24T13:13:36;22.10;50.80
64468;DHT22;50853;46.836;16.820;2022-09-24T13:16:06;22.00;50.20
64468;DHT22;50853;46.836;16.820;2022-09-24T13:18:40;21.90;49.30
64468;DHT22;50853;46.836;16.820;2022-09-24T13:21:07;21.70;50.70
64468;DHT22;50853;46.836;16.820;2022-09-24T13:26:07;21.80;50.80
64468;DHT22;50853;46.836;16.820;2022-09-24T13:31:43;21.70;51.10
64468;DHT22;50853;46.836;16.820;2022-09-24T13:34:23;21.70;50.30
64468;DHT22;50853;46.836;16.820;2022-09-24T13:36:57;21.80;50.30
64468;DHT22;50853;46.836;16.820;2022-09-24T13:45:04;21.30;51.20
64468;DHT22;50853;46.836;16.820;2022-09-24T13:55:51;21.60;51.70
64468;DHT22;50853;46.836;16.820;2022-09-24T13:58:31;21.70;50.90
64468;DHT22;50853;46.836;16.820;2022-09-24T14:00:59;21.50;52.10
64468;DHT22;50853;46.836;16.820;2022-09-24T14:03:31;21.40;50.00
64468;DHT22;50853;46.836;16.820;2022-09-24T14:18:27;20.90;53.10
64468;DHT22;50853;46.836;16.820;2022-09-24T14:23:32;20.70;52.40
64468;DHT22;50853;46.836;16.820;2022-09-24T14:26:00;20.70;52.50
64468;DHT22;50853;46.836;16.820;2022-09-24T14:28:26;20.80;52.80
64468;DHT22;50853;46.836;16.820;2022-09-24T14:30:58;20.70;52.50
64468;DHT22;50853;46.836;16.820;2022-09-24T14:33:29;20.60;51.50
64468;DHT22;50853;46.836;16.820;2022-09-24T14:35:58;20.50;52.40
64468;DHT22;50853;46.836;16.820;2022-09-24T14:38:29;20.50;52.80
64468;DHT22;50853;46.836;16.820;2022-09-24T14:41:12;20.50;53.10
64468;DHT22;50853;46.836;16.820;2022-09-24T14:46:29;20.40;53.20
64468;DHT22;50853;46.836;16.820;2022-09-24T14:51:52;20.30;52.70
64468;DHT22;50853;46.836;16.820;2022-09-24T14:54:35;20.30;53.80
64468;DHT22;50853;46.836;16.820;2022-09-24T14:57:23;20.30;53.90
64468;DHT22;50853;46.836;16.820;2022-09-24T14:59:50;20.30;53.80
64468;DHT22;50853;46.836;16.820;2022-09-24T15:02:33;20.30;54.30
64468;DHT22;50853;46.836;16.820;2022-09-24T15:05:06;20.20;53.80
64468;DHT22;50853;46.836;16.820;2022-09-24T15:07:33;20.20;53.40
64468;DHT22;50853;46.836;16.820;2022-09-24T15:09:59;20.10;52.80
64468;DHT22;50853;46.836;16.820;2022-09-24T15:12:30;20.10;53.90
64468;DHT22;50853;46.836;16.820;2022-09-24T15:17:45;20.10;54.80
64468;DHT22;50853;46.836;16.820;2022-09-24T15:20:11;19.90;56.20
64468;DHT22;50853;46.836;16.820;2022-09-24T15:22:37;19.80;54.30
64468;DHT22;50853;46.836;16.820;2022-09-24T15:25:04;19.80;55.30
64468;DHT22;50853;46.836;16.820;2022-09-24T15:27:37;19.70;55.40
64468;DHT22;50853;46.836;16.820;2022-09-24T15:30:05;19.60;55.20
64468;DHT22;50853;46.836;16.820;2022-09-24T15:32:33;19.50;54.60
64468;DHT22;50853;46.836;16.820;2022-09-24T15:35:03;19.50;55.90
64468;DHT22;50853;46.836;16.820;2022-09-24T15:37:36;19.50;55.00
64468;DHT22;50853;46.836;16.820;2022-09-24T15:40:21;19.40;55.60
64468;DHT22;50853;46.836;16.820;2022-09-24T15:42:50;19.40;56.90
64468;DHT22;50853;46.836;16.820;2022-09-24T15:45:24;19.40;56.70
64468;DHT22;50853;46.836;16.820;2022-09-24T15:47:51;19.30;56.20
64468;DHT22;50853;46.836;16.820;2022-09-24T15:50:21;19.30;56.30
64468;DHT22;50853;46.836;16.820;2022-09-24T15:52:57;19.20;56.40
64468;DHT22;50853;46.836;16.820;2022-09-24T15:55:25;19.20;57.00
64468;DHT22;50853;46.836;16.820;2022-09-24T15:57:50;19.20;57.10
64468;DHT22;50853;46.836;16.820;2022-09-24T16:00:18;19.10;56.80
64468;DHT22;50853;46.836;16.820;2022-09-24T16:02:48;19.10;57.00
64468;DHT22;50853;46.836;16.820;2022-09-24T16:05:17;19.00;56.30
64468;DHT22;50853;46.836;16.820;2022-09-24T16:07:43;18.90;56.80
64468;DHT22;50853;46.836;16.820;2022-09-24T16:10:10;18.80;57.50
64468;DHT22;50853;46.836;16.820;2022-09-24T16:12:37;18.80;57.50
64468;DHT22;50853;46.836;16.820;2022-09-24T16:15:04;18.70;57.70
64468;DHT22;50853;46.836;16.820;2022-09-24T16:17:30;18.70;58.20
64468;DHT22;50853;46.836;16.820;2022-09-24T16:19:56;18.60;58.30
64468;DHT22;50853;46.836;16.820;2022-09-24T16:22:22;18.50;58.80
64468;DHT22;50853;46.836;16.820;2022-09-24T16:24:48;18.40;59.00
64468;DHT22;50853;46.836;16.820;2022-09-24T16:27:14;18.40;59.20
64468;DHT22;50853;46.836;16.820;2022-09-24T16:29:40;18.30;60.20
64468;DHT22;50853;46.836;16.820;2022-09-24T16:32:05;18.20;60.10
64468;DHT22;50853;46.836;16.820;2022-09-24T16:34:31;18.10;60.40
64468;DHT22;50853;46.836;16.820;2022-09-24T16:36:59;18.10;60.60
64468;DHT22;50853;46.836;16.820;2022-09-24T16:39:25;18.00;60.60
64468;DHT22;50853;46.836;16.820;2022-09-24T16:41:51;18.00;60.80
64468;DHT22;50853;46.836;16.820;2022-09-24T16:44:17;17.90;61.30
64468;DHT22;50853;46.836;16.820;2022-09-24T16:46:44;17.80;61.10
64468;DHT22;50853;46.836;16.820;2022-09-24T16:49:10;17.80;61.30
64468;DHT22;50853;46.836;16.820;2022-09-24T16:51:36;17.70;62.00
64468;DHT22;50853;46.836;16.820;2022-09-24T16:54:03;17.70;61.30
64468;DHT22;50853;46.836;16.820;2022-09-24T16:56:31;17.60;61.70
64468;DHT22;50853;46.836;16.820;2022-09-24T16:58:57;17.60;61.80
64468;DHT22;50853;46.836;16.820;2022-09-24T17:01:23;17.50;61.70
64468;DHT22;50853;46.836;16.820;2022-09-24T17:03:56;17.50;61.90
64468;DHT22;50853;46.836;16.820;2022-09-24T17:06:25;17.40;62.30
64468;DHT22;50853;46.836;16.820;2022-09-24T17:08:51;17.40;62.00
64468;DHT22;50853;46.836;16.820;2022-09-24T17:11:36;17.30;62.70
64468;DHT22;50853;46.836;16.820;2022-09-24T17:14:05;17.20;62.60
64468;DHT22;50853;46.836;16.820;2022-09-24T17:16:32;17.20;62.50
64468;DHT22;50853;46.836;16.820;2022-09-24T17:18:59;17.20;62.40
64468;DHT22;50853;46.836;16.820;2022-09-24T17:21:25;17.20;62.60
64468;DHT22;50853;46.836;16.820;2022-09-24T17:23:51;17.20;62.80
64468;DHT22;50853;46.836;16.820;2022-09-24T17:26:19;17.10;62.40
64468;DHT22;50853;46.836;16.820;2022-09-24T17:28:47;17.10;62.50
64468;DHT22;50853;46.836;16.820;2022-09-24T17:31:15;17.10;62.80
64468;DHT22;50853;46.836;16.820;2022-09-24T17:33:42;17.00;62.80
64468;DHT22;50853;46.836;16.820;2022-09-24T17:36:09;17.00;63.30
64468;DHT22;50853;46.836;16.820;2022-09-24T17:38:36;16.90;63.00
64468;DHT22;50853;46.836;16.820;2022-09-24T17:41:10;16.90;63.30
64468;DHT22;50853;46.836;16.820;2022-09-24T17:43:37;16.80;63.20
64468;DHT22;50853;46.836;16.820;2022-09-24T17:46:06;16.80;63.30
64468;DHT22;50853;46.836;16.820;2022-09-24T17:48:34;16.70;63.50
64468;DHT22;50853;46.836;16.820;2022-09-24T17:51:05;16.70;63.50
64468;DHT22;50853;46.836;16.820;2022-09-24T17:53:33;16.70;63.70
64468;DHT22;50853;46.836;16.820;2022-09-24T17:56:00;16.60;63.70
64468;DHT22;50853;46.836;16.820;2022-09-24T17:58:27;16.60;64.40
64468;DHT22;50853;46.836;16.820;2022-09-24T18:00:54;16.60;63.80
64468;DHT22;50853;46.836;16.820;2022-09-24T18:03:20;16.60;63.80
64468;DHT22;50853;46.836;16.820;2022-09-24T18:05:46;16.50;64.10
64468;DHT22;50853;46.836;16.820;2022-09-24T18:08:12;16.50;64.20
64468;DHT22;50853;46.836;16.820;2022-09-24T18:10:38;16.50;64.40
64468;DHT22;50853;46.836;16.820;2022-09-24T18:13:04;16.50;64.60
64468;DHT22;50853;46.836;16.820;2022-09-24T18:15:35;16.50;64.60
64468;DHT22;50853;46.836;16.820;2022-09-24T18:18:00;16.50;64.90
64468;DHT22;50853;46.836;16.820;2022-09-24T18:20:26;16.40;64.60
64468;DHT22;50853;46.836;16.820;2022-09-24T18:22:52;16.40;65.20
64468;DHT22;50853;46.836;16.820;2022-09-24T18:25:18;16.30;65.30
64468;DHT22;50853;46.836;16.820;2022-09-24T18:27:44;16.40;65.30
64468;DHT22;50853;46.836;16.820;2022-09-24T18:30:12;16.30;65.80
64468;DHT22;50853;46.836;16.820;2022-09-24T18:32:44;16.30;66.00
64468;DHT22;50853;46.836;16.820;2022-09-24T18:35:10;16.30;66.90
64468;DHT22;50853;46.836;16.820;2022-09-24T18:37:36;16.20;66.50
64468;DHT22;50853;46.836;16.820;2022-09-24T18:40:05;16.20;66.60
64468;DHT22;50853;46.836;16.820;2022-09-24T18:42:31;16.20;66.90
64468;DHT22;50853;46.836;16.820;2022-09-24T18:45:02;16.10;67.20
64468;DHT22;50853;46.836;16.820;2022-09-24T18:47:28;16.10;67.40
64468;DHT22;50853;46.836;16.820;2022-09-24T18:49:54;16.00;67.60
64468;DHT22;50853;46.836;16.820;2022-09-24T18:52:20;16.00;66.90
64468;DHT22;50853;46.836;16.820;2022-09-24T18:54:46;16.00;67.70
64468;DHT22;50853;46.836;16.820;2022-09-24T18:57:14;15.90;67.90
64468;DHT22;50853;46.836;16.820;2022-09-24T18:59:40;15.90;67.90
64468;DHT22;50853;46.836;16.820;2022-09-24T19:02:13;15.80;68.10
64468;DHT22;50853;46.836;16.820;2022-09-24T19:04:39;15.80;68.20
64468;DHT22;50853;46.836;16.820;2022-09-24T19:07:06;15.70;68.60
64468;DHT22;50853;46.836;16.820;2022-09-24T19:09:34;15.70;68.60
64468;DHT22;50853;46.836;16.820;2022-09-24T19:12:01;15.70;68.50
64468;DHT22;50853;46.836;16.820;2022-09-24T19:14:29;15.60;68.70
64468;DHT22;50853;46.836;16.820;2022-09-24T19:16:55;15.60;69.30
64468;DHT22;50853;46.836;16.820;2022-09-24T19:19:22;15.60;69.30
64468;DHT22;50853;46.836;16.820;2022-09-24T19:21:51;15.50;69.20
64468;DHT22;50853;46.836;16.820;2022-09-24T19:24:17;15.40;69.60
64468;DHT22;50853;46.836;16.820;2022-09-24T19:26:44;15.40;69.80
64468;DHT22;50853;46.836;16.820;2022-09-24T19:29:10;15.40;69.40
64468;DHT22;50853;46.836;16.820;2022-09-24T19:31:40;15.40;70.20
64468;DHT22;50853;46.836;16.820;2022-09-24T19:34:09;15.30;69.80
64468;DHT22;50853;46.836;16.820;2022-09-24T19:36:36;15.30;69.90
64468;DHT22;50853;46.836;16.820;2022-09-24T19:39:10;15.30;71.30
64468;DHT22;50853;46.836;16.820;2022-09-24T19:41:36;15.30;71.00
64468;DHT22;50853;46.836;16.820;2022-09-24T19:44:02;15.30;70.90
64468;DHT22;50853;46.836;16.820;2022-09-24T19:46:28;15.30;70.90
64468;DHT22;50853;46.836;16.820;2022-09-24T19:48:56;15.30;71.10
64468;DHT22;50853;46.836;16.820;2022-09-24T19:51:28;15.20;70.60
64468;DHT22;50853;46.836;16.820;2022-09-24T19:53:56;15.30;70.60
64468;DHT22;50853;46.836;16.820;2022-09-24T19:56:23;15.20;70.70
64468;DHT22;50853;46.836;16.820;2022-09-24T19:58:54;15.20;71.10
64468;DHT22;50853;46.836;16.820;2022-09-24T20:01:26;15.20;70.90
64468;DHT22;50853;46.836;16.820;2022-09-24T20:03:55;15.20;70.90
64468;DHT22;50853;46.836;16.820;2022-09-24T20:06:24;15.20;70.60
64468;DHT22;50853;46.836;16.820;2022-09-24T20:08:51;15.20;71.40
64468;DHT22;50853;46.836;16.820;2022-09-24T20:11:19;15.20;71.20
64468;DHT22;50853;46.836;16.820;2022-09-24T20:13:46;15.20;70.90
64468;DHT22;50853;46.836;16.820;2022-09-24T20:16:14;15.20;71.60
64468;DHT22;50853;46.836;16.820;2022-09-24T20:18:44;15.10;71.40
64468;DHT22;50853;46.836;16.820;2022-09-24T20:21:12;15.10;71.40
64468;DHT22;50853;46.836;16.820;2022-09-24T20:23:39;15.10;71.30
64468;DHT22;50853;46.836;16.820;2022-09-24T20:26:05;15.00;71.40
64468;DHT22;50853;46.836;16.820;2022-09-24T20:28:49;15.00;72.30
64468;DHT22;50853;46.836;16.820;2022-09-24T20:31:15;14.90;72.20
64468;DHT22;50853;46.836;16.820;2022-09-24T20:33:46;15.00;72.20
64468;DHT22;50853;46.836;16.820;2022-09-24T20:36:12;14.90;71.80
64468;DHT22;50853;46.836;16.820;2022-09-24T20:38:43;14.90;72.50
64468;DHT22;50853;46.836;16.820;2022-09-24T20:41:17;14.90;72.00
64468;DHT22;50853;46.836;16.820;2022-09-24T20:43:44;14.90;72.40
64468;DHT22;50853;46.836;16.820;2022-09-24T20:46:14;14.90;72.80
64468;DHT22;50853;46.836;16.820;2022-09-24T20:48:40;14.90;72.30
64468;DHT22;50853;46.836;16.820;2022-09-24T20:51:11;14.90;71.70
64468;DHT22;50853;46.836;16.820;2022-09-24T20:53:38;14.80;72.50
64468;DHT22;50853;46.836;16.820;2022-09-24T20:56:04;14.80;73.10
64468;DHT22;50853;46.836;16.820;2022-09-24T20:58:33;14.70;72.60
64468;DHT22;50853;46.836;16.820;2022-09-24T21:00:59;14.70;72.50
64468;DHT22;50853;46.836;16.820;2022-09-24T21:03:26;14.70;73.00
64468;DHT22;50853;46.836;16.820;2022-09-24T21:06:04;14.70;72.90
64468;DHT22;50853;46.836;16.820;2022-09-24T21:08:34;14.70;72.90
64468;DHT22;50853;46.836;16.820;2022-09-24T21:11:05;14.70;72.80
64468;DHT22;50853;46.836;16.820;2022-09-24T21:13:33;14.60;73.30
64468;DHT22;50853;46.836;16.820;2022-09-24T21:16:00;14.60;73.50
64468;DHT22;50853;46.836;16.820;2022-09-24T21:18:33;14.60;73.90
64468;DHT22;50853;46.836;16.820;2022-09-24T21:21:11;14.60;73.90
64468;DHT22;50853;46.836;16.820;2022-09-24T21:23:41;14.60;73.40
64468;DHT22;50853;46.836;16.820;2022-09-24T21:28:34;14.60;73.80
64468;DHT22;50853;46.836;16.820;2022-09-24T21:31:00;14.50;73.60
64468;DHT22;50853;46.836;16.820;2022-09-24T21:33:28;14.50;73.90
64468;DHT22;50853;46.836;16.820;2022-09-24T21:35:54;14.50;74.00
64468;DHT22;50853;46.836;16.820;2022-09-24T21:38:24;14.50;74.70
64468;DHT22;50853;46.836;16.820;2022-09-24T21:40:51;14.40;74.20
64468;DHT22;50853;46.836;16.820;2022-09-24T21:43:19;14.40;75.00
64468;DHT22;50853;46.836;16.820;2022-09-24T21:45:51;14.40;74.40
64468;DHT22;50853;46.836;16.820;2022-09-24T21:48:20;14.40;75.20
64468;DHT22;50853;46.836;16.820;2022-09-24T21:50:48;14.40;75.50
64468;DHT22;50853;46.836;16.820;2022-09-24T21:53:14;14.40;75.20
64468;DHT22;50853;46.836;16.820;2022-09-24T21:55:40;14.30;75.70
64468;DHT22;50853;46.836;16.820;2022-09-24T21:58:06;14.30;75.40
64468;DHT22;50853;46.836;16.820;2022-09-24T22:00:31;14.30;75.10
64468;DHT22;50853;46.836;16.820;2022-09-24T22:02:58;14.30;75.10
64468;DHT22;50853;46.836;16.820;2022-09-24T22:05:23;14.30;76.20
64468;DHT22;50853;46.836;16.820;2022-09-24T22:07:49;14.20;75.90
64468;DHT22;50853;46.836;16.820;2022-09-24T22:10:15;14.20;76.10
64468;DHT22;50853;46.836;16.820;2022-09-24T22:12:41;14.20;76.30
64468;DHT22;50853;46.836;16.820;2022-09-24T22:15:07;14.10;76.50
64468;DHT22;50853;46.836;16.820;2022-09-24T22:17:33;14.20;76.50
64468;DHT22;50853;46.836;16.820;2022-09-24T22:19:58;14.20;76.50
64468;DHT22;50853;46.836;16.820;2022-09-24T22:22:24;14.10;77.20
64468;DHT22;50853;46.836;16.820;2022-09-24T22:24:50;14.10;76.10
64468;DHT22;50853;46.836;16.820;2022-09-24T22:27:16;14.10;76.80
64468;DHT22;50853;46.836;16.820;2022-09-24T22:29:41;14.10;77.40
64468;DHT22;50853;46.836;16.820;2022-09-24T22:32:08;14.10;77.50
64468;DHT22;50853;46.836;16.820;2022-09-24T22:34:33;14.10;77.70
64468;DHT22;50853;46.836;16.820;2022-09-24T22:37:18;14.00;77.30
64468;DHT22;50853;46.836;16.820;2022-09-24T22:39:43;14.00;77.60
64468;DHT22;50853;46.836;16.820;2022-09-24T22:42:11;14.00;78.20
64468;DHT22;50853;46.836;16.820;2022-09-24T22:44:38;14.00;77.80
64468;DHT22;50853;46.836;16.820;2022-09-24T22:47:04;14.00;77.30
64468;DHT22;50853;46.836;16.820;2022-09-24T22:49:31;14.00;77.10
64468;DHT22;50853;46.836;16.820;2022-09-24T22:52:00;14.00;77.90
64468;DHT22;50853;46.836;16.820;2022-09-24T22:54:26;14.00;78.30
64468;DHT22;50853;46.836;16.820;2022-09-24T22:56:52;14.00;78.70
64468;DHT22;50853;46.836;16.820;2022-09-24T22:59:17;14.00;78.50
64468;DHT22;50853;46.836;16.820;2022-09-24T23:01:43;13.90;79.00
64468;DHT22;50853;46.836;16.820;2022-09-24T23:04:10;13.90;79.30
64468;DHT22;50853;46.836;16.820;2022-09-24T23:06:40;13.90;79.00
64468;DHT22;50853;46.836;16.820;2022-09-24T23:09:06;13.90;79.00
64468;DHT22;50853;46.836;16.820;2022-09-24T23:11:34;13.90;79.50
64468;DHT22;50853;46.836;16.820;2022-09-24T23:14:06;13.80;79.70
64468;DHT22;50853;46.836;16.820;2022-09-24T23:16:34;13.80;79.60
64468;DHT22;50853;46.836;16.820;2022-09-24T23:19:05;13.80;79.60
64468;DHT22;50853;46.836;16.820;2022-09-24T23:21:31;13.80;80.10
64468;DHT22;50853;46.836;16.820;2022-09-24T23:24:06;13.80;80.60
64468;DHT22;50853;46.836;16.820;2022-09-24T23:26:33;13.80;80.00
64468;DHT22;50853;46.836;16.820;2022-09-24T23:29:00;13.80;81.00
64468;DHT22;50853;46.836;16.820;2022-09-24T23:31:31;13.70;80.10
64468;DHT22;50853;46.836;16.820;2022-09-24T23:33:59;13.70;79.90
64468;DHT22;50853;46.836;16.820;2022-09-24T23:36:27;13.80;80.30
64468;DHT22;50853;46.836;16.820;2022-09-24T23:38:56;13.70;80.50
64468;DHT22;50853;46.836;16.820;2022-09-24T23:41:22;13.70;80.50
64468;DHT22;50853;46.836;16.820;2022-09-24T23:43:48;13.70;80.40
64468;DHT22;50853;46.836;16.820;2022-09-24T23:46:14;13.70;81.00
64468;DHT22;50853;46.836;16.820;2022-09-24T23:48:40;13.70;80.50
64468;DHT22;50853;46.836;16.820;2022-09-24T23:51:07;13.70;81.20
64468;DHT22;50853;46.836;16.820;2022-09-24T23:53:33;13.70;81.50
64468;DHT22;50853;46.836;16.820;2022-09-24T23:56:00;13.60;81.60
64468;DHT22;50853;46.836;16.820;2022-09-24T23:58:26;13.60;80.70
